Time;durP1;ratioP1;P1;durP2;ratioP2;P2;SDS_P1;SDS_P2;PMS_P1;PMS_P2;Temp;Humidity;BMP_temperature;BMP_pressure;BME280_temperature;BME280_humidity;BME280_pressure;Samples;Min_cycle;Max_cycle;Signal;HPM_P1;HPM_P2
2023/12/21 00:01:57;;;;;;;;;;;;;;;;;;5074106;28;19909;-24
2023/12/21 00:04:23;;;;;;;;;;;;;;;;;;5075140;28;19970;-25
2023/12/21 00:06:49;;;;;;;;;;;;;;;;;;5075159;28;19935;-23
2023/12/21 00:09:15;;;;;;;;;;;;;;;;;;5075100;28;19932;-22
2023/12/21 00:11:41;;;;;;;;;;;;;;;;;;5075113;28;19909;-23
2023/12/21 00:14:07;;;;;;;;;;;;;;;;;;5075225;28;19909;-28
2023/12/21 00:16:32;;;;;;;;;;;;;;;;;;5075010;28;19908;-25
2023/12/21 00:18:58;;;;;;;;;;;;;;;;;;5074895;28;19986;-26
2023/12/21 00:21:24;;;;;;;;;;;;;;;;;;5075123;28;19916;-22
2023/12/21 00:23:50;;;;;;;;;;;;;;;;;;5074805;28;19915;-22
2023/12/21 00:26:16;;;;;;;;;;;;;;;;;;5074842;28;20351;-24
2023/12/21 00:28:42;;;;;;;;;;;;;;;;;;5075486;28;19915;-27
2023/12/21 00:31:08;;;;;;;;;;;;;;;;;;5074792;28;20062;-26
2023/12/21 00:33:34;;;;;;;;;;;;;;;;;;5074758;28;20277;-27
2023/12/21 00:36:00;;;;;;;;;;;;;;;;;;5075007;28;19985;-23
2023/12/21 00:38:26;;;;;;;;;;;;;;;;;;5074528;28;19913;-26
2023/12/21 00:40:52;;;;;;;;;;;;;;;;;;5074927;28;19908;-23
2023/12/21 00:43:18;;;;;;;;;;;;;;;;;;5073884;28;19912;-26
2023/12/21 00:45:44;;;;;;;;;;;;;;;;;;5074563;28;19909;-26
2023/12/21 00:48:10;;;;;;;;;;;;;;;;;;5074591;28;19917;-24
2023/12/21 00:50:36;;;;;;;;;;;;;;;;;;5074793;28;19944;-23
2023/12/21 00:53:02;;;;;;;;;;;;;;;;;;5074400;28;20228;-26
2023/12/21 00:55:28;;;;;;;;;;;;;;;;;;5074479;28;19920;-24
2023/12/21 00:57:54;;;;;;;;;;;;;;;;;;5074394;28;20312;-25
2023/12/21 01:00:20;;;;;;;;;;;;;;;;;;5074435;28;19984;-23
2023/12/21 01:02:46;;;;;;;;;;;;;;;;;;5074194;28;19951;-23
2023/12/21 01:05:12;;;;;;;;;;;;;;;;;;5074623;28;19908;-25
2023/12/21 01:07:38;;;;;;;;;;;;;;;;;;5074332;28;20003;-24
2023/12/21 01:10:05;;;;;;;;;;;;;;;;;;5074345;28;19920;-22
2023/12/21 01:12:32;;;;;;;;;;;;;;;;;;5074510;28;19908;-22
2023/12/21 01:14:58;;;;;;;;;;;;;;;;;;5074284;28;19916;-22
2023/12/21 01:17:24;;;;;;;;;;;;;;;;;;5074434;28;19966;-25
2023/12/21 01:19:50;;;;;;;;;;;;;;;;;;5074284;28;20339;-22
2023/12/21 01:22:16;;;;;;;;;;;;;;;;;;5074482;28;19908;-26
2023/12/21 01:24:42;;;;;;;;;;;;;;;;;;5074450;28;19908;-24
2023/12/21 01:27:08;;;;;;;;;;;;;;;;;;5074251;28;19948;-24
2023/12/21 01:29:34;;;;;;;;;;;;;;;;;;5074187;28;19913;-23
2023/12/21 01:32:00;;;;;;;;;;;;;;;;;;5074313;28;20290;-24
2023/12/21 01:34:26;;;;;;;;;;;;;;;;;;5074093;28;20220;-23
2023/12/21 01:36:52;;;;;;;;;;;;;;;;;;5074279;28;19916;-23
2023/12/21 01:39:18;;;;;;;;;;;;;;;;;;5074645;28;19912;-23
2023/12/21 01:41:44;;;;;;;;;;;;;;;;;;5074030;28;19943;-27
2023/12/21 01:44:10;;;;;;;;;;;;;;;;;;5073890;28;19908;-25
2023/12/21 01:46:36;;;;;;;;;;;;;;;;;;5074183;28;19909;-26
2023/12/21 01:49:02;;;;;;;;;;;;;;;;;;5074193;28;19992;-26
2023/12/21 01:51:28;;;;;;;;;;;;;;;;;;5073956;28;20000;-23
2023/12/21 01:53:54;;;;;;;;;;;;;;;;;;5074889;28;20352;-24
2023/12/21 01:56:20;;;;;;;;;;;;;;;;;;5077925;28;20001;-25
2023/12/21 01:58:46;;;;;;;;;;;;;;;;;;5077560;28;19913;-24
2023/12/21 02:01:13;;;;;;;;;;;;;;;;;;5077679;28;19908;-30
2023/12/21 02:03:39;;;;;;;;;;;;;;;;;;5077315;28;20362;-23
2023/12/21 02:06:05;;;;;;;;;;;;;;;;;;5077467;28;19909;-27
2023/12/21 02:08:31;;;;;;;;;;;;;;;;;;5077712;28;19909;-26
2023/12/21 02:10:57;;;;;;;;;;;;;;;;;;5077371;28;20339;-23
2023/12/21 02:13:23;;;;;;;;;;;;;;;;;;5077561;28;19909;-24
2023/12/21 02:15:49;;;;;;;;;;;;;;;;;;5077297;28;19908;-22
2023/12/21 02:18:15;;;;;;;;;;;;;;;;;;5077425;28;19970;-27
2023/12/21 02:20:43;;;;;;;;;;;;;;;;;;5077143;28;19920;-30
2023/12/21 02:23:09;;;;;;;;;;;;;;;;;;5077020;28;19908;-27
2023/12/21 02:25:35;;;;;;;;;;;;;;;;;;5077087;28;19916;-27
2023/12/21 02:28:01;;;;;;;;;;;;;;;;;;5077082;28;19962;-26
2023/12/21 02:30:27;;;;;;;;;;;;;;;;;;5077008;28;19923;-27
2023/12/21 02:32:53;;;;;;;;;;;;;;;;;;5076895;28;19908;-23
2023/12/21 02:35:19;;;;;;;;;;;;;;;;;;5077206;28;19991;-26
2023/12/21 02:37:45;;;;;;;;;;;;;;;;;;5076886;28;19912;-25
2023/12/21 02:40:11;;;;;;;;;;;;;;;;;;5077214;28;20331;-25
2023/12/21 02:42:37;;;;;;;;;;;;;;;;;;5076786;28;19916;-26
2023/12/21 02:45:03;;;;;;;;;;;;;;;;;;5076808;28;19948;-24
2023/12/21 02:47:29;;;;;;;;;;;;;;;;;;5076800;28;19970;-25
2023/12/21 02:49:55;;;;;;;;;;;;;;;;;;5077677;28;19923;-26
2023/12/21 02:52:21;;;;;;;;;;;;;;;;;;5076654;28;20344;-29
2023/12/21 02:54:46;;;;;;;;;;;;;;;;;;5076620;28;20341;-25
2023/12/21 02:57:13;;;;;;;;;;;;;;;;;;5076490;28;19931;-25
2023/12/21 02:59:38;;;;;;;;;;;;;;;;;;5076415;28;19956;-24
2023/12/21 03:02:04;;;;;;;;;;;;;;;;;;5076380;28;19934;-25
2023/12/21 03:04:30;;;;;;;;;;;;;;;;;;5076230;28;19928;-26
2023/12/21 03:06:56;;;;;;;;;;;;;;;;;;5075690;28;19950;-24
2023/12/21 03:09:22;;;;;;;;;;;;;;;;;;5076298;28;19914;-24
2023/12/21 03:11:48;;;;;;;;;;;;;;;;;;5076417;28;19963;-24
2023/12/21 03:14:15;;;;;;;;;;;;;;;;;;5076211;28;19919;-25
2023/12/21 03:16:41;;;;;;;;;;;;;;;;;;5076365;28;19978;-27
2023/12/21 03:19:07;;;;;;;;;;;;;;;;;;5076048;28;19913;-26
2023/12/21 03:21:33;;;;;;;;;;;;;;;;;;5076040;28;19926;-24
2023/12/21 03:23:59;;;;;;;;;;;;;;;;;;5075958;28;20359;-26
2023/12/21 03:26:26;;;;;;;;;;;;;;;;;;5076047;28;19948;-23
2023/12/21 03:28:52;;;;;;;;;;;;;;;;;;5075901;28;19917;-26
2023/12/21 03:31:18;;;;;;;;;;;;;;;;;;5075823;28;19962;-24
2023/12/21 03:33:44;;;;;;;;;;;;;;;;;;5075816;28;19909;-23
2023/12/21 03:36:10;;;;;;;;;;;;;;;;;;5075731;28;19909;-29
2023/12/21 03:38:36;;;;;;;;;;;;;;;;;;5075684;28;19917;-25
2023/12/21 03:41:01;;;;;;;;;;;;;;;;;;5075665;28;19927;-23
2023/12/21 03:43:27;;;;;;;;;;;;;;;;;;5074524;28;19908;-27
2023/12/21 03:45:53;;;;;;;;;;;;;;;;;;5075865;28;20025;-26
2023/12/21 03:48:19;;;;;;;;;;;;;;;;;;5075474;28;20259;-24
2023/12/21 03:50:45;;;;;;;;;;;;;;;;;;5075057;28;19908;-23
2023/12/21 03:53:11;;;;;;;;;;;;;;;;;;5075401;28;20000;-27
2023/12/21 03:55:38;;;;;;;;;;;;;;;;;;5075658;28;19944;-25
2023/12/21 03:58:04;;;;;;;;;;;;;;;;;;5075569;28;19952;-27
2023/12/21 04:00:30;;;;;;;;;;;;;;;;;;5075342;28;19943;-25
2023/12/21 04:02:56;;;;;;;;;;;;;;;;;;5074981;28;20022;-27
2023/12/21 04:05:22;;;;;;;;;;;;;;;;;;5075441;28;20350;-26
2023/12/21 04:07:48;;;;;;;;;;;;;;;;;;5075346;28;19920;-26
2023/12/21 04:10:14;;;;;;;;;;;;;;;;;;5074005;28;19956;-25
2023/12/21 04:12:40;;;;;;;;;;;;;;;;;;5074933;28;19970;-27
2023/12/21 04:15:06;;;;;;;;;;;;;;;;;;5075176;28;19995;-24
2023/12/21 04:17:32;;;;;;;;;;;;;;;;;;5074883;28;19909;-25
2023/12/21 04:19:58;;;;;;;;;;;;;;;;;;5075164;28;19908;-27
2023/12/21 04:22:24;;;;;;;;;;;;;;;;;;5075085;28;19909;-26
2023/12/21 04:24:50;;;;;;;;;;;;;;;;;;5074885;28;19915;-24
2023/12/21 04:27:16;;;;;;;;;;;;;;;;;;5075089;28;19923;-29
2023/12/21 04:29:42;;;;;;;;;;;;;;;;;;5073841;28;19961;-26
2023/12/21 04:32:08;;;;;;;;;;;;;;;;;;5074816;28;19939;-25
2023/12/21 04:34:34;;;;;;;;;;;;;;;;;;5074842;28;20321;-28
2023/12/21 04:37:00;;;;;;;;;;;;;;;;;;5073830;28;19913;-30
2023/12/21 04:39:26;;;;;;;;;;;;;;;;;;5074531;28;20358;-28
2023/12/21 04:41:52;;;;;;;;;;;;;;;;;;5074787;28;19943;-24
2023/12/21 04:44:18;;;;;;;;;;;;;;;;;;5074529;28;19944;-24
2023/12/21 04:46:47;;;;;;;;;;;;;;;;;;5074755;28;20343;-26
2023/12/21 04:49:13;;;;;;;;;;;;;;;;;;5075189;28;20007;-23
2023/12/21 04:51:39;;;;;;;;;;;;;;;;;;5074441;28;19908;-24
2023/12/21 04:54:06;;;;;;;;;;;;;;;;;;5074311;28;19987;-23
2023/12/21 04:56:31;;;;;;;;;;;;;;;;;;5074393;28;19966;-24
2023/12/21 04:58:57;;;;;;;;;;;;;;;;;;5074544;28;19927;-25
2023/12/21 05:03:59;;;;;;;;;;;;;;;;;;5115508;22;20389;-21
2023/12/21 05:06:25;;;;;;;;;;;;;;;;;;5054426;28;19905;-22
2023/12/21 05:08:51;;;;;;;;;;;;;;;;;;5054270;28;19909;-23
2023/12/21 05:11:17;;;;;;;;;;;;;;;;;;5053944;28;19915;-22
2023/12/21 05:13:43;;;;;;;;;;;;;;;;;;5036118;28;20238;-22
2023/12/21 05:16:09;;;;;;;;;;;;;;;;;;5054054;28;19912;-20
2023/12/21 05:18:36;;;;;;;;;;;;;;;;;;5054134;28;20243;-22
2023/12/21 05:21:02;;;;;;;;;;;;;;;;;;5053854;28;19916;-21
2023/12/21 05:23:28;;;;;;;;;;;;;;;;;;5036322;28;19908;-23
2023/12/21 05:25:54;;;;;;;;;;;;;;;;;;5053795;28;20240;-21
2023/12/21 05:28:20;;;;;;;;;;;;;;;;;;5053647;28;19909;-21
2023/12/21 05:30:46;;;;;;;;;;;;;;;;;;5057510;28;19917;-19
2023/12/21 05:33:13;;;;;;;;;;;;;;;;;;5057747;28;19909;-22
2023/12/21 05:35:39;;;;;;;;;;;;;;;;;;5057940;28;19909;-22
2023/12/21 05:38:05;;;;;;;;;;;;;;;;;;5057755;28;19913;-20
2023/12/21 05:40:31;;;;;;;;;;;;;;;;;;5057826;28;19909;-21
2023/12/21 05:42:57;;;;;;;;;;;;;;;;;;5057929;28;19909;-22
2023/12/21 05:45:23;;;;;;;;;;;;;;;;;;5057994;28;19999;-20
2023/12/21 05:47:49;;;;;;;;;;;;;;;;;;5057373;28;19909;-22
2023/12/21 05:50:15;;;;;;;;;;;;;;;;;;5057551;28;20251;-20
2023/12/21 05:52:41;;;;;;;;;;;;;;;;;;5057503;28;19909;-21
2023/12/21 05:55:07;;;;;;;;;;;;;;;;;;5057563;28;20295;-21
2023/12/21 05:57:33;;;;;;;;;;;;;;;;;;5039526;28;19912;-22
2023/12/21 05:59:59;;;;;;;;;;;;;;;;;;5057238;28;20351;-22
2023/12/21 06:02:25;;;;;;;;;;;;;;;;;;5056809;28;20090;-20
2023/12/21 06:04:51;;;;;;;;;;;;;;;;;;5057683;28;20000;-20
2023/12/21 06:07:17;;;;;;;;;;;;;;;;;;5057376;28;19909;-20
2023/12/21 06:09:43;;;;;;;;;;;;;;;;;;5040174;28;19916;-23
2023/12/21 06:12:09;;;;;;;;;;;;;;;;;;5057297;28;19978;-22
2023/12/21 06:14:35;;;;;;;;;;;;;;;;;;5056956;28;19920;-21
2023/12/21 06:17:01;;;;;;;;;;;;;;;;;;5056962;28;20189;-21
2023/12/21 06:19:27;;;;;;;;;;;;;;;;;;5056895;28;20017;-23
2023/12/21 06:21:53;;;;;;;;;;;;;;;;;;5057131;28;20307;-20
2023/12/21 06:24:19;;;;;;;;;;;;;;;;;;5056789;28;19909;-21
2023/12/21 06:26:45;;;;;;;;;;;;;;;;;;5056983;28;19962;-21
2023/12/21 06:29:11;;;;;;;;;;;;;;;;;;5039044;28;19979;-20
2023/12/21 06:31:37;;;;;;;;;;;;;;;;;;5057045;28;19921;-21
2023/12/21 06:34:03;;;;;;;;;;;;;;;;;;5038849;28;19917;-21
2023/12/21 06:36:29;;;;;;;;;;;;;;;;;;5056490;28;20251;-21
2023/12/21 06:38:55;;;;;;;;;;;;;;;;;;5056379;28;20224;-22
2023/12/21 06:41:21;;;;;;;;;;;;;;;;;;5055463;28;19925;-20
2023/12/21 06:43:47;;;;;;;;;;;;;;;;;;5038660;28;19932;-22
2023/12/21 06:46:13;;;;;;;;;;;;;;;;;;5056262;28;19920;-23
2023/12/21 06:48:39;;;;;;;;;;;;;;;;;;5056159;28;19916;-21
2023/12/21 06:51:05;;;;;;;;;;;;;;;;;;5056499;28;19920;-20
2023/12/21 06:53:31;;;;;;;;;;;;;;;;;;5055974;28;20331;-21
2023/12/21 06:55:57;;;;;;;;;;;;;;;;;;5056062;28;19909;-20
2023/12/21 06:58:25;;;;;;;;;;;;;;;;;;5055881;28;19970;-22
2023/12/21 07:00:51;;;;;;;;;;;;;;;;;;5055894;28;19909;-21
2023/12/21 07:03:17;;;;;;;;;;;;;;;;;;5038021;28;19920;-22
2023/12/21 07:05:43;;;;;;;;;;;;;;;;;;5055938;28;19912;-21
2023/12/21 07:08:09;;;;;;;;;;;;;;;;;;5055783;28;19908;-19
2023/12/21 07:10:35;;;;;;;;;;;;;;;;;;5055948;28;19913;-20
2023/12/21 07:13:01;;;;;;;;;;;;;;;;;;5037841;28;19966;-20
2023/12/21 07:15:27;;;;;;;;;;;;;;;;;;5037547;28;20212;-21
2023/12/21 07:17:54;;;;;;;;;;;;;;;;;;5055451;28;19916;-19
2023/12/21 07:20:24;;;;;;;;;;;;;;;;;;5055293;28;20208;-21
2023/12/21 07:22:50;;;;;;;;;;;;;;;;;;5055240;28;19909;-21
2023/12/21 07:25:16;;;;;;;;;;;;;;;;;;5055151;28;20349;-21
2023/12/21 07:27:42;;;;;;;;;;;;;;;;;;5055003;28;19931;-21
2023/12/21 07:30:08;;;;;;;;;;;;;;;;;;5054965;28;19955;-21
2023/12/21 07:32:34;;;;;;;;;;;;;;;;;;5054872;28;20359;-21
2023/12/21 07:35:00;;;;;;;;;;;;;;;;;;5055090;28;19923;-22
2023/12/21 07:37:26;;;;;;;;;;;;;;;;;;5054756;28;19977;-21
2023/12/21 07:39:52;;;;;;;;;;;;;;;;;;5054895;28;19970;-21
2023/12/21 07:42:18;;;;;;;;;;;;;;;;;;5037203;28;20003;-21
2023/12/21 07:44:45;;;;;;;;;;;;;;;;;;5055007;28;19955;-20
2023/12/21 07:47:11;;;;;;;;;;;;;;;;;;5054715;28;19909;-22
2023/12/21 07:49:37;;;;;;;;;;;;;;;;;;5054806;28;19983;-19
2023/12/21 07:52:03;;;;;;;;;;;;;;;;;;5054505;28;19955;-21
2023/12/21 07:54:29;;;;;;;;;;;;;;;;;;5054456;28;20323;-21
2023/12/21 07:56:55;;;;;;;;;;;;;;;;;;5054572;28;19909;-24
2023/12/21 07:59:22;;;;;;;;;;;;;;;;;;5036999;28;19928;-21
2023/12/21 08:01:48;;;;;;;;;;;;;;;;;;5036905;28;19908;-22
2023/12/21 08:04:16;;;;;;;;;;;;;;;;;;5054645;28;20255;-20
2023/12/21 08:06:42;;;;;;;;;;;;;;;;;;5037267;28;20232;-22
2023/12/21 08:09:08;;;;;;;;;;;;;;;;;;5037131;28;19923;-21
2023/12/21 08:11:34;;;;;;;;;;;;;;;;;;5037107;28;19942;-21
2023/12/21 08:14:00;;;;;;;;;;;;;;;;;;5054601;28;19995;-21
2023/12/21 08:16:26;;;;;;;;;;;;;;;;;;5054554;28;20294;-20
2023/12/21 08:18:52;;;;;;;;;;;;;;;;;;5054719;28;19960;-20
2023/12/21 08:21:18;;;;;;;;;;;;;;;;;;5054486;28;19909;-22
2023/12/21 08:23:44;;;;;;;;;;;;;;;;;;5054318;28;19916;-21
2023/12/21 08:26:10;;;;;;;;;;;;;;;;;;5054548;28;19915;-19
2023/12/21 08:28:36;;;;;;;;;;;;;;;;;;5054655;28;19916;-21
2023/12/21 08:31:03;;;;;;;;;;;;;;;;;;5054402;28;19920;-23
2023/12/21 08:33:30;;;;;;;;;;;;;;;;;;5054302;28;19920;-20
2023/12/21 08:35:56;;;;;;;;;;;;;;;;;;5054545;28;19923;-22
2023/12/21 08:38:22;;;;;;;;;;;;;;;;;;5054136;28;20332;-20
2023/12/21 08:40:48;;;;;;;;;;;;;;;;;;5054208;28;19963;-20
2023/12/21 08:43:14;;;;;;;;;;;;;;;;;;5036177;28;19913;-30
2023/12/21 08:45:40;;;;;;;;;;;;;;;;;;5054045;28;19909;-21
2023/12/21 08:48:06;;;;;;;;;;;;;;;;;;5036879;28;19909;-23
2023/12/21 08:50:32;;;;;;;;;;;;;;;;;;5053750;28;20347;-20
2023/12/21 08:53:00;;;;;;;;;;;;;;;;;;5054016;28;19995;-20
2023/12/21 08:55:27;;;;;;;;;;;;;;;;;;5054308;28;19974;-21
2023/12/21 08:57:53;;;;;;;;;;;;;;;;;;5053966;28;19916;-22
2023/12/21 09:00:19;;;;;;;;;;;;;;;;;;5053986;28;20354;-22
2023/12/21 09:02:46;;;;;;;;;;;;;;;;;;5035807;28;19995;-22
2023/12/21 09:05:13;;;;;;;;;;;;;;;;;;5053489;28;19919;-23
2023/12/21 09:07:39;;;;;;;;;;;;;;;;;;5054049;28;19909;-22
2023/12/21 09:10:06;;;;;;;;;;;;;;;;;;5036292;28;19909;-21
2023/12/21 09:12:32;;;;;;;;;;;;;;;;;;5053880;28;19916;-22
2023/12/21 09:14:58;;;;;;;;;;;;;;;;;;5054138;28;20008;-20
2023/12/21 09:17:24;;;;;;;;;;;;;;;;;;5053603;28;19924;-21
2023/12/21 09:19:50;;;;;;;;;;;;;;;;;;5053967;28;19912;-21
2023/12/21 09:22:16;;;;;;;;;;;;;;;;;;5053719;28;19987;-20
2023/12/21 09:24:42;;;;;;;;;;;;;;;;;;5053794;28;19909;-21
2023/12/21 09:27:08;;;;;;;;;;;;;;;;;;5035964;28;19909;-20
2023/12/21 09:29:34;;;;;;;;;;;;;;;;;;5054124;28;20022;-22
2023/12/21 09:32:00;;;;;;;;;;;;;;;;;;5053603;28;19909;-21
2023/12/21 09:34:26;;;;;;;;;;;;;;;;;;5053841;28;19959;-21
2023/12/21 09:36:53;;;;;;;;;;;;;;;;;;5053612;28;19916;-20
2023/12/21 09:39:19;;;;;;;;;;;;;;;;;;5053199;28;19928;-20
2023/12/21 09:41:45;;;;;;;;;;;;;;;;;;5053330;28;19917;-24
2023/12/21 09:44:11;;;;;;;;;;;;;;;;;;5053480;28;19916;-20
2023/12/21 09:46:39;;;;;;;;;;;;;;;;;;5035502;28;19920;-23
2023/12/21 09:49:05;;;;;;;;;;;;;;;;;;5035572;28;20239;-33
2023/12/21 09:51:31;;;;;;;;;;;;;;;;;;5053256;28;19983;-20
2023/12/21 09:53:57;;;;;;;;;;;;;;;;;;5053304;28;19920;-20
2023/12/21 09:56:23;;;;;;;;;;;;;;;;;;5053109;28;19920;-20
2023/12/21 09:58:49;;;;;;;;;;;;;;;;;;5035573;28;19912;-21
2023/12/21 10:01:15;;;;;;;;;;;;;;;;;;5053172;28;19919;-22
2023/12/21 10:03:41;;;;;;;;;;;;;;;;;;5035330;28;19932;-21
2023/12/21 10:06:07;;;;;;;;;;;;;;;;;;5053084;28;20437;-21
2023/12/21 10:08:33;;;;;;;;;;;;;;;;;;5053427;28;19915;-19
2023/12/21 10:10:59;;;;;;;;;;;;;;;;;;5053527;28;20325;-23
2023/12/21 10:13:25;;;;;;;;;;;;;;;;;;5035329;28;19908;-21
2023/12/21 10:15:52;;;;;;;;;;;;;;;;;;5038439;28;20224;-22
2023/12/21 10:18:18;;;;;;;;;;;;;;;;;;5056442;28;19919;-21
2023/12/21 10:20:44;;;;;;;;;;;;;;;;;;5056472;28;20342;-21
2023/12/21 10:23:10;;;;;;;;;;;;;;;;;;5056570;28;19909;-21
2023/12/21 10:25:38;;;;;;;;;;;;;;;;;;5056356;28;19959;-19
2023/12/21 10:28:04;;;;;;;;;;;;;;;;;;5056634;28;20365;-21
2023/12/21 10:30:30;;;;;;;;;;;;;;;;;;5038815;28;19966;-21
2023/12/21 10:32:56;;;;;;;;;;;;;;;;;;5056684;28;19913;-20
2023/12/21 10:35:22;;;;;;;;;;;;;;;;;;5056550;28;19909;-23
2023/12/21 10:37:48;;;;;;;;;;;;;;;;;;5056670;28;20301;-22
2023/12/21 10:40:14;;;;;;;;;;;;;;;;;;5056595;28;19913;-22
2023/12/21 10:42:40;;;;;;;;;;;;;;;;;;5056459;28;19909;-21
2023/12/21 10:45:06;;;;;;;;;;;;;;;;;;5056559;28;19909;-21
2023/12/21 10:47:33;;;;;;;;;;;;;;;;;;5056426;28;20354;-22
2023/12/21 10:49:59;;;;;;;;;;;;;;;;;;5056534;28;19917;-22
2023/12/21 10:52:25;;;;;;;;;;;;;;;;;;5056619;28;19967;-23
2023/12/21 10:54:51;;;;;;;;;;;;;;;;;;5056802;28;20324;-23
2023/12/21 10:57:17;;;;;;;;;;;;;;;;;;5056262;28;20286;-22
2023/12/21 10:59:43;;;;;;;;;;;;;;;;;;5055950;28;19916;-21
2023/12/21 11:02:09;;;;;;;;;;;;;;;;;;5055956;28;19916;-20
2023/12/21 11:04:35;;;;;;;;;;;;;;;;;;5056079;28;20296;-22
2023/12/21 11:07:01;;;;;;;;;;;;;;;;;;5056176;28;19908;-22
2023/12/21 11:09:31;;;;;;;;;;;;;;;;;;5055830;28;20347;-21
2023/12/21 11:11:57;;;;;;;;;;;;;;;;;;5055595;28;19909;-19
2023/12/21 11:14:24;;;;;;;;;;;;;;;;;;5038173;28;19935;-19
2023/12/21 11:16:50;;;;;;;;;;;;;;;;;;5056046;28;19909;-21
2023/12/21 11:19:16;;;;;;;;;;;;;;;;;;5055717;28;19912;-21
2023/12/21 11:21:42;;;;;;;;;;;;;;;;;;5038006;28;19920;-22
2023/12/21 11:24:08;;;;;;;;;;;;;;;;;;5038076;28;19909;-22
2023/12/21 11:26:34;;;;;;;;;;;;;;;;;;5055067;28;20316;-22
2023/12/21 11:29:00;;;;;;;;;;;;;;;;;;5037977;28;19932;-20
2023/12/21 11:31:26;;;;;;;;;;;;;;;;;;5037477;28;20003;-20
2023/12/21 11:33:52;;;;;;;;;;;;;;;;;;5037975;28;20243;-23
2023/12/21 11:36:18;;;;;;;;;;;;;;;;;;5037746;28;20004;-21
2023/12/21 11:38:47;;;;;;;;;;;;;;;;;;5055454;28;19992;-22
2023/12/21 11:41:13;;;;;;;;;;;;;;;;;;5055280;28;19913;-24
2023/12/21 11:43:40;;;;;;;;;;;;;;;;;;5037372;28;20034;-21
2023/12/21 11:46:09;;;;;;;;;;;;;;;;;;5054535;28;20198;-21
2023/12/21 11:48:35;;;;;;;;;;;;;;;;;;5055108;28;19963;-20
2023/12/21 11:51:01;;;;;;;;;;;;;;;;;;5054991;28;19991;-21
2023/12/21 11:53:28;;;;;;;;;;;;;;;;;;5055151;28;19909;-23
2023/12/21 11:55:54;;;;;;;;;;;;;;;;;;5054977;28;19959;-22
2023/12/21 11:58:21;;;;;;;;;;;;;;;;;;5037156;28;19984;-21
2023/12/21 12:00:50;;;;;;;;;;;;;;;;;;5054700;28;19996;-22
2023/12/21 12:03:16;;;;;;;;;;;;;;;;;;5054546;28;19921;-20
2023/12/21 12:05:42;;;;;;;;;;;;;;;;;;5054878;28;19940;-21
2023/12/21 12:08:08;;;;;;;;;;;;;;;;;;5054541;28;19909;-21
2023/12/21 12:10:34;;;;;;;;;;;;;;;;;;5054571;28;19917;-24
2023/12/21 12:13:00;;;;;;;;;;;;;;;;;;5036783;28;20059;-22
2023/12/21 12:15:27;;;;;;;;;;;;;;;;;;5036834;28;20366;-19
2023/12/21 12:17:53;;;;;;;;;;;;;;;;;;5054472;28;19912;-21
2023/12/21 12:20:19;;;;;;;;;;;;;;;;;;5054397;28;20367;-23
2023/12/21 12:22:45;;;;;;;;;;;;;;;;;;5054629;28;19909;-21
2023/12/21 12:25:12;;;;;;;;;;;;;;;;;;5054388;28;20260;-22
2023/12/21 12:27:38;;;;;;;;;;;;;;;;;;5054232;28;19909;-22
2023/12/21 12:30:04;;;;;;;;;;;;;;;;;;5054411;28;19967;-20
2023/12/21 12:32:31;;;;;;;;;;;;;;;;;;5054306;28;19909;-20
2023/12/21 12:34:58;;;;;;;;;;;;;;;;;;5054370;28;19992;-21
2023/12/21 12:37:24;;;;;;;;;;;;;;;;;;5036573;28;19924;-20
2023/12/21 12:39:51;;;;;;;;;;;;;;;;;;5053959;28;19912;-23
2023/12/21 12:42:17;;;;;;;;;;;;;;;;;;5054381;28;20282;-22
2023/12/21 12:44:43;;;;;;;;;;;;;;;;;;5054222;28;19966;-22
2023/12/21 12:47:09;;;;;;;;;;;;;;;;;;5054206;28;19995;-22
2023/12/21 12:49:35;;;;;;;;;;;;;;;;;;5054179;28;19909;-22
2023/12/21 12:52:01;;;;;;;;;;;;;;;;;;5054208;28;20243;-20
2023/12/21 12:54:28;;;;;;;;;;;;;;;;;;5054182;28;20192;-22
2023/12/21 12:56:54;;;;;;;;;;;;;;;;;;5053897;28;19913;-20
2023/12/21 12:59:20;;;;;;;;;;;;;;;;;;5053618;28;20354;-22
2023/12/21 13:01:46;;;;;;;;;;;;;;;;;;5035869;28;19909;-22
2023/12/21 13:04:12;;;;;;;;;;;;;;;;;;5053827;28;19931;-22
2023/12/21 13:06:38;;;;;;;;;;;;;;;;;;5053970;28;19915;-21
2023/12/21 13:09:06;;;;;;;;;;;;;;;;;;5054137;28;20367;-21
2023/12/21 13:11:33;;;;;;;;;;;;;;;;;;5036183;28;20004;-21
2023/12/21 13:13:59;;;;;;;;;;;;;;;;;;5053574;28;19915;-23
2023/12/21 13:16:25;;;;;;;;;;;;;;;;;;5053931;28;19909;-21
2023/12/21 13:18:51;;;;;;;;;;;;;;;;;;5053688;28;19913;-21
2023/12/21 13:21:17;;;;;;;;;;;;;;;;;;5053744;28;19928;-21
2023/12/21 13:23:43;;;;;;;;;;;;;;;;;;5053747;28;19912;-21
2023/12/21 13:26:09;;;;;;;;;;;;;;;;;;5053907;28;19959;-24
2023/12/21 13:28:38;;;;;;;;;;;;;;;;;;5053531;28;19920;-21
2023/12/21 13:31:04;;;;;;;;;;;;;;;;;;5053463;28;19909;-23
2023/12/21 13:33:30;;;;;;;;;;;;;;;;;;5053506;28;19962;-21
2023/12/21 13:35:56;;;;;;;;;;;;;;;;;;5053832;28;19908;-22
2023/12/21 13:38:22;;;;;;;;;;;;;;;;;;5035823;28;19913;-19
2023/12/21 13:40:48;;;;;;;;;;;;;;;;;;5053701;28;19908;-20
2023/12/21 13:43:14;;;;;;;;;;;;;;;;;;5053504;28;19918;-21
2023/12/21 13:45:40;;;;;;;;;;;;;;;;;;5053495;28;19927;-21
2023/12/21 13:48:06;;;;;;;;;;;;;;;;;;5053462;28;20304;-28
2023/12/21 13:50:32;;;;;;;;;;;;;;;;;;5055367;28;20062;-20
2023/12/21 13:52:58;;;;;;;;;;;;;;;;;;5057309;28;20302;-22
2023/12/21 13:55:24;;;;;;;;;;;;;;;;;;5057096;28;19917;-22
2023/12/21 13:57:50;;;;;;;;;;;;;;;;;;5056897;28;20324;-22
2023/12/21 14:00:16;;;;;;;;;;;;;;;;;;5056985;28;19909;-22
2023/12/21 14:02:42;;;;;;;;;;;;;;;;;;5056755;28;19960;-20
2023/12/21 14:05:08;;;;;;;;;;;;;;;;;;5057038;28;19975;-21
2023/12/21 14:07:34;;;;;;;;;;;;;;;;;;5057085;28;19952;-22
2023/12/21 14:10:02;;;;;;;;;;;;;;;;;;5057065;28;19940;-23
2023/12/21 14:12:28;;;;;;;;;;;;;;;;;;5056857;28;19909;-23
2023/12/21 14:14:54;;;;;;;;;;;;;;;;;;5057153;28;20003;-22
2023/12/21 14:17:20;;;;;;;;;;;;;;;;;;5056877;28;19962;-21
2023/12/21 14:19:46;;;;;;;;;;;;;;;;;;5039170;28;19913;-23
2023/12/21 14:22:12;;;;;;;;;;;;;;;;;;5057083;28;20247;-21
2023/12/21 14:24:38;;;;;;;;;;;;;;;;;;5056893;28;19909;-21
2023/12/21 14:27:04;;;;;;;;;;;;;;;;;;5056591;28;19924;-22
2023/12/21 14:29:30;;;;;;;;;;;;;;;;;;5056593;28;19909;-21
2023/12/21 14:31:56;;;;;;;;;;;;;;;;;;5056471;28;19909;-21
2023/12/21 14:34:22;;;;;;;;;;;;;;;;;;5056789;28;19909;-21
2023/12/21 14:36:48;;;;;;;;;;;;;;;;;;5056507;28;19909;-21
2023/12/21 14:39:15;;;;;;;;;;;;;;;;;;5056537;28;19917;-20
2023/12/21 14:41:41;;;;;;;;;;;;;;;;;;5056455;28;19908;-21
2023/12/21 14:44:07;;;;;;;;;;;;;;;;;;5057002;28;19932;-24
2023/12/21 14:46:33;;;;;;;;;;;;;;;;;;5038887;28;20312;-21
2023/12/21 14:48:59;;;;;;;;;;;;;;;;;;5056474;28;19916;-21
2023/12/21 14:51:25;;;;;;;;;;;;;;;;;;5056309;28;19924;-21
2023/12/21 14:53:51;;;;;;;;;;;;;;;;;;5038466;28;19938;-21
2023/12/21 14:56:17;;;;;;;;;;;;;;;;;;5056247;28;20300;-22
2023/12/21 14:58:43;;;;;;;;;;;;;;;;;;5056292;28;20000;-23
2023/12/21 15:01:09;;;;;;;;;;;;;;;;;;5055264;28;20246;-22
2023/12/21 15:03:35;;;;;;;;;;;;;;;;;;5038539;28;19920;-22
2023/12/21 15:06:01;;;;;;;;;;;;;;;;;;5056344;28;19916;-21
2023/12/21 15:08:29;;;;;;;;;;;;;;;;;;5056122;28;20286;-19
2023/12/21 15:10:55;;;;;;;;;;;;;;;;;;5055713;28;19948;-19
2023/12/21 15:13:24;;;;;;;;;;;;;;;;;;5055626;28;19919;-21
2023/12/21 15:15:50;;;;;;;;;;;;;;;;;;5055530;28;19909;-21
2023/12/21 15:18:16;;;;;;;;;;;;;;;;;;5056020;28;19913;-19
2023/12/21 15:20:42;;;;;;;;;;;;;;;;;;5038115;28;19932;-20
2023/12/21 15:23:08;;;;;;;;;;;;;;;;;;5037816;28;20374;-22
2023/12/21 15:25:33;;;;;;;;;;;;;;;;;;5055573;28;19913;-23
2023/12/21 15:27:59;;;;;;;;;;;;;;;;;;5055389;28;20356;-21
2023/12/21 15:30:25;;;;;;;;;;;;;;;;;;5055601;28;20252;-21
2023/12/21 15:32:52;;;;;;;;;;;;;;;;;;5055428;28;20300;-20
2023/12/21 15:35:18;;;;;;;;;;;;;;;;;;5055437;28;19955;-22
2023/12/21 15:37:44;;;;;;;;;;;;;;;;;;5037765;28;19971;-22
2023/12/21 15:40:10;;;;;;;;;;;;;;;;;;5055474;28;19924;-22
2023/12/21 15:42:36;;;;;;;;;;;;;;;;;;5037687;28;20315;-22
2023/12/21 15:45:02;;;;;;;;;;;;;;;;;;5037703;28;19909;-21
2023/12/21 15:47:28;;;;;;;;;;;;;;;;;;5055327;28;19909;-19
2023/12/21 15:49:55;;;;;;;;;;;;;;;;;;5055081;28;19908;-21
2023/12/21 15:52:21;;;;;;;;;;;;;;;;;;5055301;28;19996;-20
2023/12/21 15:54:47;;;;;;;;;;;;;;;;;;5055067;28;19951;-23
2023/12/21 15:57:13;;;;;;;;;;;;;;;;;;5055009;28;19913;-23
2023/12/21 15:59:39;;;;;;;;;;;;;;;;;;5037275;28;20343;-23
2023/12/21 16:02:05;;;;;;;;;;;;;;;;;;5037180;28;19909;-22
2023/12/21 16:04:31;;;;;;;;;;;;;;;;;;5054717;28;19920;-21
2023/12/21 16:06:58;;;;;;;;;;;;;;;;;;5036792;28;19920;-19
2023/12/21 16:09:26;;;;;;;;;;;;;;;;;;5037508;28;19994;-21
2023/12/21 16:11:52;;;;;;;;;;;;;;;;;;5054832;28;20324;-21
2023/12/21 16:14:18;;;;;;;;;;;;;;;;;;5053896;28;19916;-20
2023/12/21 16:16:44;;;;;;;;;;;;;;;;;;5053877;28;19913;-22
2023/12/21 16:19:10;;;;;;;;;;;;;;;;;;5053917;28;19934;-21
2023/12/21 16:21:36;;;;;;;;;;;;;;;;;;5053726;28;20366;-21
2023/12/21 16:24:02;;;;;;;;;;;;;;;;;;5053470;28;19929;-22
2023/12/21 16:26:28;;;;;;;;;;;;;;;;;;5053516;28;20351;-20
2023/12/21 16:28:54;;;;;;;;;;;;;;;;;;5053592;28;19912;-21
2023/12/21 16:31:21;;;;;;;;;;;;;;;;;;5053556;28;19935;-21
2023/12/21 16:33:47;;;;;;;;;;;;;;;;;;5053384;28;19972;-23
2023/12/21 16:36:13;;;;;;;;;;;;;;;;;;5035849;28;19952;-21
2023/12/21 16:38:40;;;;;;;;;;;;;;;;;;5053438;28;19920;-21
2023/12/21 16:41:06;;;;;;;;;;;;;;;;;;5036677;28;19936;-22